createdAt,value
2023-04-06T00:00:31.826Z,101065.56
2023-04-06T00:01:50.419Z,101063.96
2023-04-06T00:02:53.459Z,101064.77
2023-04-06T00:03:56.948Z,101059.14
2023-04-06T00:04:59.898Z,101063.41
2023-04-06T00:06:02.765Z,101061.66
2023-04-06T00:07:05.660Z,101057.44
2023-04-06T00:08:08.870Z,101055.87
2023-04-06T00:09:12.207Z,101054.16
2023-04-06T00:10:15.718Z,101059.23
2023-04-06T00:11:19.006Z,101051.07
2023-04-06T00:12:21.969Z,101057.52
2023-04-06T00:13:24.928Z,101055.02
2023-04-06T00:14:27.830Z,101061.67
2023-04-06T00:15:30.689Z,101052.36
2023-04-06T00:16:33.700Z,101059.85
2023-04-06T00:17:36.911Z,101051.41
2023-04-06T00:18:40.429Z,101051.52
2023-04-06T00:19:43.286Z,101051.31
2023-04-06T00:20:46.314Z,101048.10
2023-04-06T00:21:49.362Z,101053.64
2023-04-06T00:22:52.287Z,101051.97
2023-04-06T00:23:55.199Z,101051.66
2023-04-06T00:24:58.050Z,101044.58
2023-04-06T00:26:01.261Z,101050.82
2023-04-06T00:27:04.214Z,101045.35
2023-04-06T00:28:07.101Z,101047.70
2023-04-06T00:29:10.984Z,101055.46
2023-04-06T00:30:14.441Z,101049.38
2023-04-06T00:31:17.782Z,101046.17
2023-04-06T00:32:20.817Z,101047.52
2023-04-06T00:33:24.272Z,101045.06
2023-04-06T00:34:27.109Z,101043.55
2023-04-06T00:35:30.115Z,101043.03
2023-04-06T00:36:33.241Z,101043.80
2023-04-06T00:37:36.228Z,101045.95
2023-04-06T00:38:39.131Z,101038.45
2023-04-06T00:39:42.179Z,101037.25
2023-04-06T00:40:45.553Z,101036.66
2023-04-06T00:41:52.335Z,101039.23
2023-04-06T00:42:56.176Z,101041.49
2023-04-06T00:43:59.208Z,101046.70
2023-04-06T00:45:03.014Z,101044.40
2023-04-06T00:46:06.433Z,101039.95
2023-04-06T00:47:09.809Z,101035.68
2023-04-06T00:48:12.798Z,101039.80
2023-04-06T00:49:15.689Z,101038.23
2023-04-06T00:50:19.278Z,101037.73
2023-04-06T00:51:22.177Z,101042.24
2023-04-06T00:52:25.571Z,101040.23
2023-04-06T00:53:28.984Z,101035.84
2023-04-06T00:54:32.427Z,101034.28
2023-04-06T00:55:37.102Z,101033.54
2023-04-06T00:56:40.497Z,101033.38
2023-04-06T00:57:43.520Z,101036.39
2023-04-06T00:58:46.627Z,101032.88
2023-04-06T00:59:49.752Z,101032.05
2023-04-06T01:00:52.711Z,101033.48
2023-04-06T01:01:56.910Z,101032.14
2023-04-06T01:03:22.281Z,101036.45
2023-04-06T01:04:25.428Z,101032.65
2023-04-06T01:05:29.274Z,101030.96
2023-04-06T01:06:34.151Z,101035.29
2023-04-06T01:07:38.311Z,101037.95
2023-04-06T01:08:45.316Z,101035.64
2023-04-06T01:09:59.570Z,101032.27
2023-04-06T01:11:03.546Z,101029.12
2023-04-06T01:12:07.110Z,101028.02
2023-04-06T01:13:11.463Z,101020.54
2023-04-06T01:14:25.436Z,101023.98
2023-04-06T01:15:34.903Z,101027.35
2023-04-06T01:16:38.608Z,101031.06
2023-04-06T01:17:51.014Z,101032.94
2023-04-06T01:18:54.264Z,101030.95
2023-04-06T01:20:00.924Z,101032.66
2023-04-06T01:21:07.012Z,101028.02
2023-04-06T01:22:09.907Z,101025.14
2023-04-06T01:23:21.215Z,101023.55
2023-04-06T01:24:24.693Z,101020.48
2023-04-06T01:25:48.010Z,101020.27
2023-04-06T01:26:51.229Z,101019.28
2023-04-06T01:27:54.677Z,101017.02
2023-04-06T01:29:09.331Z,101019.11
2023-04-06T01:30:12.577Z,101016.36
2023-04-06T01:31:22.997Z,101016.02
2023-04-06T01:32:27.911Z,101016.39
2023-04-06T01:33:30.813Z,101014.18
2023-04-06T01:34:39.348Z,101010.15
2023-04-06T01:35:42.649Z,101014.16
2023-04-06T01:36:54.515Z,101016.16
2023-04-06T01:38:01.804Z,101014.40
2023-04-06T01:39:08.143Z,101016.08
2023-04-06T01:40:14.832Z,101011.75
2023-04-06T01:41:21.596Z,101010.45
2023-04-06T01:42:27.353Z,101009.21
2023-04-06T01:43:30.665Z,101007.58
2023-04-06T01:44:42.066Z,101013.98
2023-04-06T01:45:48.179Z,101013.89
2023-04-06T01:46:55.004Z,101011.23
2023-04-06T01:47:58.081Z,101005.52
2023-04-06T01:49:02.088Z,101007.63
2023-04-06T01:50:12.621Z,101011.63
2023-04-06T01:51:19.424Z,101006.88
2023-04-06T01:52:27.048Z,101009.02
2023-04-06T01:53:30.124Z,101004.34
2023-04-06T01:54:37.999Z,101002.81
2023-04-06T01:55:51.486Z,101004.20
2023-04-06T01:56:59.228Z,101004.64
2023-04-06T01:58:17.216Z,101005.30
2023-04-06T01:59:20.551Z,100995.73
2023-04-06T02:00:23.434Z,101001.13
2023-04-06T02:01:26.961Z,101002.27
2023-04-06T02:02:32.386Z,100995.01
2023-04-06T02:03:38.442Z,101001.91
2023-04-06T02:04:44.267Z,101003.09
2023-04-06T02:05:48.952Z,100992.23
2023-04-06T02:07:01.654Z,100994.39
2023-04-06T02:08:06.337Z,100988.92
2023-04-06T02:09:10.999Z,100998.66
2023-04-06T02:10:15.029Z,100990.67
2023-04-06T02:11:19.186Z,100991.41
2023-04-06T02:12:25.179Z,100988.64
2023-04-06T02:13:28.820Z,100993.02
2023-04-06T02:14:31.966Z,100987.12
2023-04-06T02:15:36.100Z,100986.14
2023-04-06T02:16:39.286Z,100983.88
2023-04-06T02:17:43.298Z,100986.34
2023-04-06T02:18:46.328Z,100986.52
2023-04-06T02:19:49.233Z,100988.48
2023-04-06T02:20:52.234Z,100987.73
2023-04-06T02:21:55.442Z,100983.09
2023-04-06T02:23:01.503Z,100983.14
2023-04-06T02:24:04.515Z,100984.32
2023-04-06T02:25:07.803Z,100986.67
2023-04-06T02:26:11.089Z,100988.63
2023-04-06T02:27:16.100Z,100990.64
2023-04-06T02:28:22.506Z,100990.85
2023-04-06T02:29:25.352Z,100984.05
2023-04-06T02:30:28.379Z,100981.73
2023-04-06T02:31:31.378Z,100978.77
2023-04-06T02:32:34.568Z,100986.95
2023-04-06T02:33:38.323Z,100980.81
2023-04-06T02:34:41.916Z,100979.52
2023-04-06T02:35:46.896Z,100979.95
2023-04-06T02:36:49.897Z,100977.25
2023-04-06T02:37:52.802Z,100974.67
2023-04-06T02:38:56.786Z,100979.98
2023-04-06T02:39:59.714Z,100968.27
2023-04-06T02:41:03.481Z,100969.46
2023-04-06T02:42:06.777Z,100969.54
2023-04-06T02:43:09.645Z,100965.98
2023-04-06T02:44:12.658Z,100974.85
2023-04-06T02:45:18.910Z,100971.17
2023-04-06T02:46:23.557Z,100972.12
2023-04-06T02:47:27.206Z,100969.52
2023-04-06T02:48:30.304Z,100971.13
2023-04-06T02:49:33.198Z,100966.52
2023-04-06T02:50:36.080Z,100967.99
2023-04-06T02:51:41.109Z,100967.44
2023-04-06T02:52:54.864Z,100969.85
2023-04-06T02:53:58.582Z,100970.38
2023-04-06T02:55:01.527Z,100971.39
2023-04-06T02:56:08.222Z,100972.28
2023-04-06T02:57:19.103Z,100971.52
2023-04-06T02:58:23.019Z,100972.69
2023-04-06T02:59:29.286Z,100974.31
2023-04-06T03:00:39.195Z,100972.68
2023-04-06T03:01:42.147Z,100977.76
2023-04-06T03:02:45.505Z,100976.45
2023-04-06T03:03:51.910Z,100973.63
2023-04-06T03:04:59.325Z,100977.88
2023-04-06T03:06:06.948Z,100981.49
2023-04-06T03:07:10.241Z,100972.41
2023-04-06T03:08:14.356Z,100981.27
2023-04-06T03:09:21.518Z,100981.71
2023-04-06T03:10:24.396Z,100974.88
2023-04-06T03:11:27.882Z,100978.11
2023-04-06T03:12:30.801Z,100981.61
2023-04-06T03:13:53.045Z,100980.53
2023-04-06T03:14:56.893Z,100982.75
2023-04-06T03:16:00.120Z,100982.59
2023-04-06T03:17:03.527Z,100980.09
2023-04-06T03:18:06.551Z,100976.20
2023-04-06T03:19:16.742Z,100977.21
2023-04-06T03:20:20.725Z,100975.13
2023-04-06T03:21:23.619Z,100977.84
2023-04-06T03:22:28.464Z,100972.41
2023-04-06T03:23:31.650Z,100977.14
2023-04-06T03:24:36.421Z,100980.04
2023-04-06T03:25:40.733Z,100982.15
2023-04-06T03:26:44.959Z,100982.81
2023-04-06T03:27:47.979Z,100980.02
2023-04-06T03:28:53.219Z,100983.86
2023-04-06T03:29:57.709Z,100989.77
2023-04-06T03:31:06.029Z,100980.67
2023-04-06T03:32:27.796Z,100986.40
2023-04-06T03:33:31.233Z,100984.44
2023-04-06T03:34:34.334Z,100980.58
2023-04-06T03:35:38.108Z,100982.52
2023-04-06T03:36:41.748Z,100980.90
2023-04-06T03:37:44.619Z,100987.64
2023-04-06T03:38:48.293Z,100986.07
2023-04-06T03:39:51.749Z,100987.46
2023-04-06T03:40:57.249Z,100986.77
2023-04-06T03:42:02.225Z,100989.27
2023-04-06T03:43:13.355Z,100988.36
2023-04-06T03:44:16.568Z,100987.65
2023-04-06T03:45:20.565Z,100984.25
2023-04-06T03:46:26.175Z,100985.56
2023-04-06T03:47:31.013Z,100982.83
2023-04-06T03:48:37.460Z,100980.34
2023-04-06T03:49:42.068Z,100981.52
2023-04-06T03:50:46.488Z,100980.80
2023-04-06T03:51:49.460Z,100980.52
2023-04-06T03:52:52.360Z,100980.77
2023-04-06T03:53:55.801Z,100977.04
2023-04-06T03:54:59.114Z,100982.30
2023-04-06T03:56:04.603Z,100986.70
2023-04-06T03:57:07.822Z,100984.41
2023-04-06T03:58:11.337Z,100983.46
2023-04-06T03:59:14.234Z,100982.73
2023-04-06T04:00:17.260Z,100984.33
2023-04-06T04:01:20.148Z,100983.45
2023-04-06T04:02:23.093Z,100980.95
2023-04-06T04:03:28.859Z,100979.88
2023-04-06T04:04:31.944Z,100976.73
2023-04-06T04:05:35.371Z,100977.30
2023-04-06T04:06:38.394Z,100979.34
2023-04-06T04:07:42.140Z,100983.33
2023-04-06T04:08:46.102Z,100981.02
2023-04-06T04:09:49.101Z,100987.08
2023-04-06T04:10:51.972Z,100984.89
2023-04-06T04:11:55.742Z,100980.80
2023-04-06T04:12:58.797Z,100982.22
2023-04-06T04:14:01.836Z,100983.67
2023-04-06T04:15:06.052Z,100978.14
2023-04-06T04:16:09.088Z,100983.86
2023-04-06T04:17:12.111Z,100981.60
2023-04-06T04:18:15.873Z,100982.17
2023-04-06T04:19:18.826Z,100984.59
2023-04-06T04:20:21.683Z,100984.71
2023-04-06T04:21:24.823Z,100986.39
2023-04-06T04:22:28.930Z,100982.01
2023-04-06T04:23:31.945Z,100978.34
2023-04-06T04:24:34.913Z,100978.02
2023-04-06T04:25:39.038Z,100979.20
2023-04-06T04:26:42.606Z,100976.01
2023-04-06T04:27:45.605Z,100978.31
2023-04-06T04:28:48.589Z,100976.20
2023-04-06T04:29:53.153Z,100976.29
2023-04-06T04:30:56.565Z,100969.89
2023-04-06T04:31:59.640Z,100975.89
2023-04-06T04:33:02.739Z,100971.52
2023-04-06T04:34:07.929Z,100974.33
2023-04-06T04:35:11.235Z,100977.34
2023-04-06T04:36:16.240Z,100977.68
2023-04-06T04:37:19.841Z,100979.66
2023-04-06T04:38:26.531Z,100978.19
2023-04-06T04:39:32.879Z,100978.13
2023-04-06T04:40:39.786Z,100972.15
2023-04-06T04:41:44.994Z,100970.11
2023-04-06T04:42:48.732Z,100970.48
2023-04-06T04:43:57.401Z,100975.21
2023-04-06T04:45:01.306Z,100972.44
2023-04-06T04:46:13.545Z,100966.05
2023-04-06T04:47:20.349Z,100970.16
2023-04-06T04:48:24.368Z,100971.34
2023-04-06T04:49:30.416Z,100969.30
2023-04-06T04:50:33.624Z,100965.41
2023-04-06T04:51:37.703Z,100966.96
2023-04-06T04:52:47.632Z,100968.00
2023-04-06T04:53:53.301Z,100963.61
2023-04-06T04:54:59.108Z,100967.29
2023-04-06T04:56:04.632Z,100958.98
2023-04-06T04:57:08.318Z,100966.33
2023-04-06T04:58:17.781Z,100964.25
2023-04-06T04:59:25.487Z,100964.02
2023-04-06T05:00:34.188Z,100961.61
2023-04-06T05:01:51.333Z,100959.98
2023-04-06T05:02:58.520Z,100966.40
2023-04-06T05:04:07.029Z,100964.48
2023-04-06T05:05:10.344Z,100960.02
2023-04-06T05:06:13.880Z,100961.65
2023-04-06T05:07:19.718Z,100957.20
2023-04-06T05:08:23.041Z,100962.02
2023-04-06T05:09:26.357Z,100958.73
2023-04-06T05:10:29.236Z,100954.36
2023-04-06T05:11:35.456Z,100955.42
2023-04-06T05:12:39.044Z,100955.09
2023-04-06T05:13:46.607Z,100959.31
2023-04-06T05:14:54.561Z,100961.06
2023-04-06T05:15:58.547Z,100965.31
2023-04-06T05:17:07.570Z,100967.66
2023-04-06T05:18:11.209Z,100962.55
2023-04-06T05:19:14.141Z,100969.11
2023-04-06T05:20:19.958Z,100964.95
2023-04-06T05:21:27.422Z,100963.39
2023-04-06T05:22:40.441Z,100968.56
2023-04-06T05:23:44.975Z,100964.51
2023-04-06T05:24:47.973Z,100963.77
2023-04-06T05:25:52.075Z,100964.80
2023-04-06T05:26:57.802Z,100970.43
2023-04-06T05:28:00.964Z,100964.77
2023-04-06T05:29:07.628Z,100964.17
2023-04-06T05:30:12.861Z,100965.99
2023-04-06T05:31:19.828Z,100963.33
2023-04-06T05:32:25.927Z,100965.52
2023-04-06T05:33:29.583Z,100968.68
2023-04-06T05:34:44.360Z,100966.02
2023-04-06T05:35:48.284Z,100964.90
2023-04-06T05:36:51.590Z,100967.80
2023-04-06T05:37:57.983Z,100971.34
2023-04-06T05:39:02.184Z,100967.62
2023-04-06T05:40:17.798Z,100963.86
2023-04-06T05:41:21.513Z,100963.50
2023-04-06T05:42:24.723Z,100961.10
2023-04-06T05:43:30.047Z,100955.61
2023-04-06T05:44:33.819Z,100953.48
2023-04-06T05:45:46.768Z,100952.67
2023-04-06T05:46:49.801Z,100955.98
2023-04-06T05:47:53.778Z,100953.02
2023-04-06T05:49:02.240Z,100953.04
2023-04-06T05:50:08.202Z,100947.85
2023-04-06T05:51:14.632Z,100951.43
2023-04-06T05:52:23.628Z,100949.23
2023-04-06T05:53:30.196Z,100944.06
2023-04-06T05:54:34.757Z,100943.72
2023-04-06T05:55:38.123Z,100941.84
2023-04-06T05:56:51.163Z,100945.58
2023-04-06T05:57:59.490Z,100939.64
2023-04-06T05:59:02.955Z,100936.84
2023-04-06T06:00:09.960Z,100941.61
2023-04-06T06:01:15.501Z,100945.10
2023-04-06T06:02:22.475Z,100941.54
2023-04-06T06:03:27.746Z,100938.47
2023-04-06T06:04:32.408Z,100936.11
2023-04-06T06:05:36.914Z,100944.95
2023-04-06T06:06:46.212Z,100940.94
2023-04-06T06:07:52.041Z,100939.20
2023-04-06T06:08:55.124Z,100939.71
2023-04-06T06:09:59.246Z,100935.35
2023-04-06T06:11:06.585Z,100943.20
2023-04-06T06:12:10.484Z,100939.58
2023-04-06T06:13:14.414Z,100938.02
2023-04-06T06:14:17.713Z,100939.55
2023-04-06T06:15:20.837Z,100935.17
2023-04-06T06:16:24.023Z,100932.10
2023-04-06T06:17:27.005Z,100932.48
2023-04-06T06:18:29.902Z,100929.85
2023-04-06T06:19:33.515Z,100927.55
2023-04-06T06:20:38.708Z,100937.02
2023-04-06T06:21:42.206Z,100933.58
2023-04-06T06:22:45.540Z,100937.08
2023-04-06T06:23:52.241Z,100941.22
2023-04-06T06:24:56.435Z,100932.45
2023-04-06T06:25:59.712Z,100941.52
2023-04-06T06:27:02.792Z,100936.96
2023-04-06T06:28:07.691Z,100935.66
2023-04-06T06:29:11.590Z,100937.00
2023-04-06T06:30:15.913Z,100930.54
2023-04-06T06:31:23.818Z,100927.33
2023-04-06T06:32:27.301Z,100928.79
2023-04-06T06:33:30.742Z,100929.63
2023-04-06T06:34:34.284Z,100937.50
2023-04-06T06:35:38.702Z,100929.52
2023-04-06T06:36:41.828Z,100931.91
2023-04-06T06:37:45.563Z,100935.16
2023-04-06T06:38:50.095Z,100930.52
2023-04-06T06:39:55.330Z,100934.37
2023-04-06T06:40:58.794Z,100924.75
2023-04-06T06:42:03.383Z,100922.42
2023-04-06T06:43:41.661Z,100916.27
2023-04-06T06:44:46.042Z,100922.02
2023-04-06T06:45:49.099Z,100924.27
2023-04-06T06:46:52.061Z,100926.21
2023-04-06T06:47:55.691Z,100913.80
2023-04-06T06:49:00.130Z,100914.17
2023-04-06T06:50:04.291Z,100912.32
2023-04-06T06:51:07.398Z,100919.20
2023-04-06T06:52:10.356Z,100913.08
2023-04-06T06:53:13.415Z,100916.35
2023-04-06T06:54:16.310Z,100916.05
2023-04-06T06:55:20.291Z,100918.36
2023-04-06T06:56:23.325Z,100919.48
2023-04-06T06:57:27.084Z,100917.79
2023-04-06T06:58:29.992Z,100916.71
2023-04-06T06:59:32.929Z,100913.27
2023-04-06T07:00:37.007Z,100916.27
2023-04-06T07:01:41.200Z,100916.02
2023-04-06T07:02:44.319Z,100914.73
2023-04-06T07:03:47.360Z,100918.77
2023-04-06T07:04:51.008Z,100913.08
2023-04-06T07:05:55.355Z,100914.73
2023-04-06T07:06:59.554Z,100914.30
2023-04-06T07:08:02.505Z,100911.52
2023-04-06T07:09:05.987Z,100916.05
2023-04-06T07:10:09.866Z,100917.38
2023-04-06T07:11:14.572Z,100918.09
2023-04-06T07:12:17.807Z,100920.23
2023-04-06T07:13:24.979Z,100918.29
2023-04-06T07:14:30.070Z,100915.36
2023-04-06T07:15:33.040Z,100912.80
2023-04-06T07:16:36.075Z,100913.40
2023-04-06T07:17:39.307Z,100917.87
2023-04-06T07:18:42.271Z,100912.42
2023-04-06T07:19:46.149Z,100914.48
2023-04-06T07:20:49.134Z,100914.27
2023-04-06T07:21:52.406Z,100918.04
2023-04-06T07:22:55.444Z,100909.79
2023-04-06T07:23:58.387Z,100909.98
2023-04-06T07:25:01.244Z,100914.30
2023-04-06T07:26:04.212Z,100910.80
2023-04-06T07:27:07.174Z,100909.58
2023-04-06T07:28:10.246Z,100907.53
2023-04-06T07:29:13.846Z,100905.13
2023-04-06T07:30:16.882Z,100906.14
2023-04-06T07:31:20.134Z,100904.99
2023-04-06T07:32:23.213Z,100908.31
2023-04-06T07:33:30.574Z,100910.06
2023-04-06T07:34:33.972Z,100908.13
2023-04-06T07:35:38.386Z,100905.36
2023-04-06T07:36:41.764Z,100906.64
2023-04-06T07:37:44.658Z,100912.79
2023-04-06T07:38:48.447Z,100909.52
2023-04-06T07:39:51.502Z,100907.77
2023-04-06T07:40:54.396Z,100907.85
2023-04-06T07:41:57.343Z,100909.75
2023-04-06T07:43:00.300Z,100906.82
2023-04-06T07:44:03.376Z,100906.13
2023-04-06T07:45:07.116Z,100908.88
2023-04-06T07:46:10.084Z,100906.29
2023-04-06T07:47:13.718Z,100905.45
2023-04-06T07:48:16.636Z,100906.16
2023-04-06T07:49:19.629Z,100908.35
2023-04-06T07:50:22.761Z,100909.34
2023-04-06T07:51:26.684Z,100909.13
2023-04-06T07:52:29.681Z,100911.08
2023-04-06T07:53:33.016Z,100906.73
2023-04-06T07:54:36.926Z,100907.32
2023-04-06T07:55:39.937Z,100906.41
2023-04-06T07:56:42.818Z,100902.25
2023-04-06T07:57:45.677Z,100901.09
2023-04-06T07:58:48.525Z,100901.34
2023-04-06T07:59:51.453Z,100896.92
2023-04-06T08:00:55.740Z,100902.08
2023-04-06T08:01:58.625Z,100898.79
2023-04-06T08:03:01.811Z,100898.65
2023-04-06T08:04:04.872Z,100900.47
2023-04-06T08:05:08.372Z,100899.80
2023-04-06T08:06:11.576Z,100900.41
2023-04-06T08:07:14.478Z,100899.40
2023-04-06T08:08:17.454Z,100900.55
2023-04-06T08:09:20.672Z,100897.89
2023-04-06T08:10:23.593Z,100897.83
2023-04-06T08:11:27.840Z,100893.58
2023-04-06T08:12:31.038Z,100900.62
2023-04-06T08:13:35.138Z,100899.11
2023-04-06T08:14:38.243Z,100902.17
2023-04-06T08:15:41.417Z,100897.56
2023-04-06T08:16:44.858Z,100897.39
2023-04-06T08:17:47.794Z,100893.79
2023-04-06T08:18:50.761Z,100894.55
2023-04-06T08:19:53.576Z,100892.07
2023-04-06T08:20:57.198Z,100890.66
2023-04-06T08:22:00.148Z,100888.69
2023-04-06T08:23:03.248Z,100887.41
2023-04-06T08:24:07.455Z,100889.33
2023-04-06T08:25:10.720Z,100888.63
2023-04-06T08:26:13.746Z,100893.09
2023-04-06T08:27:16.577Z,100892.56
2023-04-06T08:28:19.504Z,100888.48
2023-04-06T08:29:22.603Z,100887.86
2023-04-06T08:30:25.471Z,100886.30
2023-04-06T08:31:28.884Z,100885.88
2023-04-06T08:32:31.872Z,100888.40
2023-04-06T08:33:40.416Z,100891.11
2023-04-06T08:34:43.649Z,100894.44
2023-04-06T08:35:46.683Z,100893.52
2023-04-06T08:36:49.556Z,100896.20
2023-04-06T08:37:52.421Z,100884.55
2023-04-06T08:38:55.888Z,100887.24
2023-04-06T08:39:58.796Z,100887.36
2023-04-06T08:41:01.599Z,100887.15
2023-04-06T08:42:04.686Z,100886.34
2023-04-06T08:43:12.593Z,100887.08
2023-04-06T08:44:15.740Z,100884.89
2023-04-06T08:45:19.097Z,100885.77
2023-04-06T08:46:22.126Z,100877.70
2023-04-06T08:47:25.264Z,100888.73
2023-04-06T08:48:28.522Z,100884.02
2023-04-06T08:49:31.687Z,100878.20
2023-04-06T08:50:35.140Z,100883.25
2023-04-06T08:51:39.281Z,100886.10
2023-04-06T08:52:45.263Z,100877.78
2023-04-06T08:53:49.704Z,100879.41
2023-04-06T08:54:52.575Z,100887.65
2023-04-06T08:55:57.991Z,100879.46
2023-04-06T08:57:02.943Z,100890.18
2023-04-06T08:58:08.453Z,100885.40
2023-04-06T08:59:12.667Z,100881.33
2023-04-06T09:00:16.849Z,100880.16
2023-04-06T09:01:22.676Z,100884.09
2023-04-06T09:02:26.801Z,100878.84
2023-04-06T09:03:32.899Z,100877.70
2023-04-06T09:04:37.775Z,100877.70
2023-04-06T09:05:40.964Z,100867.46
2023-04-06T09:06:44.365Z,100878.70
2023-04-06T09:07:47.350Z,100876.06
2023-04-06T09:08:50.247Z,100872.74
2023-04-06T09:09:53.131Z,100882.89
2023-04-06T09:10:56.076Z,100873.23
2023-04-06T09:12:07.117Z,100877.85
2023-04-06T09:13:10.716Z,100878.83
2023-04-06T09:14:13.888Z,100879.09
2023-04-06T09:15:24.313Z,100880.04
2023-04-06T09:16:28.013Z,100879.92
2023-04-06T09:17:34.675Z,100877.41
2023-04-06T09:18:37.689Z,100877.33
2023-04-06T09:19:50.398Z,100874.56
2023-04-06T09:21:07.621Z,100868.33
2023-04-06T09:22:10.563Z,100866.31
2023-04-06T09:23:19.814Z,100864.66
2023-04-06T09:24:27.242Z,100867.35
2023-04-06T09:25:31.177Z,100868.05
2023-04-06T09:26:34.964Z,100864.98
2023-04-06T09:27:39.568Z,100866.55
2023-04-06T09:28:54.675Z,100865.56
2023-04-06T09:30:15.046Z,100863.05
2023-04-06T09:31:23.731Z,100864.65
2023-04-06T09:32:26.664Z,100863.36
2023-04-06T09:33:29.621Z,100862.80
2023-04-06T09:34:33.040Z,100850.42
2023-04-06T09:35:36.315Z,100859.62
2023-04-06T09:36:42.226Z,100855.34
2023-04-06T09:37:45.424Z,100861.77
2023-04-06T09:38:55.833Z,100852.20
2023-04-06T09:40:08.636Z,100856.52
2023-04-06T09:41:11.616Z,100848.03
2023-04-06T09:42:27.101Z,100848.85
2023-04-06T09:43:31.173Z,100847.63
2023-04-06T09:44:34.572Z,100845.39
2023-04-06T09:45:37.716Z,100839.55
2023-04-06T09:46:58.060Z,100844.06
2023-04-06T09:48:02.638Z,100842.41
2023-04-06T09:49:07.058Z,100843.08
2023-04-06T09:50:15.194Z,100847.98
2023-04-06T09:51:20.214Z,100845.23
2023-04-06T09:52:30.386Z,100844.30
2023-04-06T09:53:39.038Z,100841.73
2023-04-06T09:54:43.834Z,100838.11
2023-04-06T09:55:52.090Z,100834.77
2023-04-06T09:57:25.892Z,100836.64
2023-04-06T09:58:35.156Z,100833.90
2023-04-06T10:00:12.445Z,100837.15
2023-04-06T10:01:20.604Z,100833.38
2023-04-06T10:02:38.593Z,100840.09
2023-04-06T10:04:05.428Z,100838.96
2023-04-06T10:05:36.945Z,100831.54
2023-04-06T10:06:40.484Z,100838.74
2023-04-06T10:07:59.029Z,100837.64
2023-04-06T10:09:08.921Z,100839.83
2023-04-06T10:10:13.390Z,100837.64
2023-04-06T10:11:17.306Z,100840.70
2023-04-06T10:12:20.992Z,100834.91
2023-04-06T10:13:25.827Z,100839.01
2023-04-06T10:14:29.141Z,100834.45
2023-04-06T10:15:32.871Z,100835.80
2023-04-06T10:16:36.840Z,100834.33
2023-04-06T10:17:40.298Z,100829.77
2023-04-06T10:18:48.155Z,100826.27
2023-04-06T10:19:56.416Z,100822.03
2023-04-06T10:21:10.180Z,100824.14
2023-04-06T10:22:16.853Z,100821.73
2023-04-06T10:23:35.262Z,100818.20
2023-04-06T10:24:38.282Z,100818.01
2023-04-06T10:25:41.367Z,100818.64
2023-04-06T10:26:44.326Z,100818.90
2023-04-06T10:27:47.251Z,100815.89
2023-04-06T10:28:51.516Z,100819.46
2023-04-06T10:29:54.438Z,100817.36
2023-04-06T10:31:00.022Z,100815.61
2023-04-06T10:32:03.012Z,100817.05
2023-04-06T10:33:21.303Z,100816.52
2023-04-06T10:34:24.274Z,100817.08
2023-04-06T10:35:38.758Z,100815.79
2023-04-06T10:36:41.694Z,100809.63
2023-04-06T10:37:53.073Z,100812.67
2023-04-06T10:39:04.475Z,100812.04
2023-04-06T10:40:08.168Z,100809.92
2023-04-06T10:41:12.722Z,100810.37
2023-04-06T10:42:15.642Z,100807.53
2023-04-06T10:43:23.754Z,100802.59
2023-04-06T10:44:26.680Z,100796.91
2023-04-06T10:45:32.427Z,100796.77
2023-04-06T10:46:35.567Z,100796.64
2023-04-06T10:47:41.851Z,100795.77
2023-04-06T10:48:51.144Z,100793.07
2023-04-06T10:49:54.446Z,100796.41
2023-04-06T10:50:58.016Z,100794.04
2023-04-06T10:52:01.050Z,100793.24
2023-04-06T10:53:04.265Z,100792.91
2023-04-06T10:54:08.083Z,100792.83
2023-04-06T10:55:13.121Z,100792.01
2023-04-06T10:56:19.000Z,100787.27
2023-04-06T10:57:30.083Z,100789.66
2023-04-06T10:58:32.906Z,100785.16
2023-04-06T10:59:36.588Z,100781.01
2023-04-06T11:00:50.711Z,100782.27
2023-04-06T11:01:56.478Z,100783.16
2023-04-06T11:03:03.036Z,100774.92
2023-04-06T11:04:06.243Z,100777.30
2023-04-06T11:05:09.275Z,100777.01
2023-04-06T11:06:18.440Z,100772.30
2023-04-06T11:07:30.148Z,100774.68
2023-04-06T11:08:34.572Z,100777.96
2023-04-06T11:09:37.767Z,100778.59
2023-04-06T11:10:40.798Z,100782.17
2023-04-06T11:11:43.730Z,100773.84
2023-04-06T11:12:54.450Z,100772.90
2023-04-06T11:13:59.505Z,100773.33
2023-04-06T11:15:07.322Z,100774.63
2023-04-06T11:16:31.041Z,100777.08
2023-04-06T11:17:38.495Z,100774.23
2023-04-06T11:18:49.057Z,100772.25
2023-04-06T11:19:51.961Z,100774.20
2023-04-06T11:20:54.917Z,100771.25
2023-04-06T11:22:08.440Z,100773.99
2023-04-06T11:23:11.482Z,100774.69
2023-04-06T11:24:14.440Z,100768.42
2023-04-06T11:25:18.292Z,100766.79
2023-04-06T11:26:21.714Z,100769.41
2023-04-06T11:27:26.554Z,100761.89
2023-04-06T11:28:29.620Z,100762.18
2023-04-06T11:29:32.999Z,100762.18
2023-04-06T11:30:35.932Z,100761.90
2023-04-06T11:31:44.396Z,100752.65
2023-04-06T11:32:48.916Z,100759.31
2023-04-06T11:33:57.713Z,100753.26
2023-04-06T11:35:01.295Z,100758.26
2023-04-06T11:36:04.354Z,100752.54
2023-04-06T11:37:12.222Z,100752.52
2023-04-06T11:38:15.581Z,100756.52
2023-04-06T11:39:24.695Z,100752.14
2023-04-06T11:40:28.994Z,100750.21
2023-04-06T11:41:33.796Z,100749.64
2023-04-06T11:42:36.819Z,100749.39
2023-04-06T11:43:39.687Z,100749.48
2023-04-06T11:44:50.334Z,100748.24
2023-04-06T11:46:09.361Z,100742.92
2023-04-06T11:47:13.520Z,100742.70
2023-04-06T11:48:21.403Z,100743.68
2023-04-06T11:49:29.474Z,100741.64
2023-04-06T11:50:36.592Z,100746.67
2023-04-06T11:51:39.607Z,100747.87
2023-04-06T11:52:43.140Z,100745.98
2023-04-06T11:53:48.720Z,100742.26
2023-04-06T11:54:53.772Z,100747.29
2023-04-06T11:55:57.613Z,100740.73
2023-04-06T11:57:01.807Z,100737.17
2023-04-06T11:58:04.798Z,100736.46
2023-04-06T11:59:08.179Z,100741.52
2023-04-06T12:00:11.993Z,100729.48
2023-04-06T12:01:15.371Z,100736.75
2023-04-06T12:02:19.075Z,100724.26
2023-04-06T12:03:22.303Z,100727.90
2023-04-06T12:04:25.727Z,100721.99
2023-04-06T12:05:29.449Z,100723.52
2023-04-06T12:06:32.365Z,100728.06
2023-04-06T12:07:35.709Z,100724.50
2023-04-06T12:08:39.215Z,100728.58
2023-04-06T12:09:42.531Z,100727.46
2023-04-06T12:10:45.513Z,100719.30
2023-04-06T12:11:48.541Z,100723.83
2023-04-06T12:12:51.460Z,100711.80
2023-04-06T12:13:54.747Z,100721.48
2023-04-06T12:14:58.562Z,100714.96
2023-04-06T12:16:01.560Z,100711.84
2023-04-06T12:17:04.845Z,100714.94
2023-04-06T12:18:07.763Z,100711.20
2023-04-06T12:19:10.821Z,100701.25
2023-04-06T12:20:25.260Z,100709.18
2023-04-06T12:21:29.524Z,100707.29
2023-04-06T12:22:32.562Z,100702.18
2023-04-06T12:23:35.646Z,100708.54
2023-04-06T12:24:38.790Z,100701.45